Time;durP1;ratioP1;P1;durP2;ratioP2;P2;SDS_P1;SDS_P2;PMS_P1;PMS_P2;Temp;Humidity;BMP_temperature;BMP_pressure;BME280_temperature;BME280_humidity;BME280_pressure;Samples;Min_cycle;Max_cycle;Signal;HPM_P1;HPM_P2
2021/01/06 05:51:56;;;;;;;1999.90;999.90;;;-0.30;99.90;;;;;;5069085;28;20551;-48
2021/01/06 05:54:43;;;;;;;1999.90;999.90;;;-0.30;99.90;;;;;;5037799;28;20883;-49
2021/01/06 05:57:41;;;;;;;1999.90;999.90;;;-0.30;99.90;;;;;;5029475;28;20416;-48
2021/01/06 06:00:25;;;;;;;1999.90;999.90;;;-0.30;99.90;;;;;;5045185;28;20560;-49
2021/01/06 06:03:00;;;;;;;1999.90;999.90;;;-0.30;99.90;;;;;;5029078;28;20469;-49
2021/01/06 06:05:37;;;;;;;1999.90;999.90;;;-0.30;99.90;;;;;;5029662;28;20447;-49
2021/01/06 06:08:30;;;;;;;1999.90;999.90;;;-0.20;99.90;;;;;;5043651;28;20528;-49
2021/01/06 06:11:20;;;;;;;1999.90;999.90;;;-0.20;99.90;;;;;;5045218;28;20478;-49
2021/01/06 06:14:11;;;;;;;1999.90;999.90;;;-0.10;99.90;;;;;;5035912;28;20449;-49
2021/01/06 06:16:51;;;;;;;1999.90;999.90;;;-0.10;99.90;;;;;;5028787;28;20740;-49
2021/01/06 06:19:53;;;;;;;1999.90;999.90;;;-0.10;99.90;;;;;;5028958;28;20442;-48
2021/01/06 06:22:26;;;;;;;1999.90;999.90;;;-0.10;99.90;;;;;;5029114;28;20388;-49
2021/01/06 06:24:58;;;;;;;1999.90;999.90;;;0.00;99.90;;;;;;5029155;28;20540;-49
2021/01/06 06:27:34;;;;;;;1999.90;999.90;;;0.00;99.90;;;;;;5028524;28;20424;-50
2021/01/06 06:30:15;;;;;;;1999.90;999.90;;;0.00;99.90;;;;;;5028237;28;20462;-50
2021/01/06 06:32:44;;;;;;;1999.90;999.90;;;0.00;99.90;;;;;;5042112;28;20841;-49
2021/01/06 06:35:22;;;;;;;1999.90;999.90;;;0.00;99.90;;;;;;5046412;28;20964;-49
2021/01/06 06:38:02;;;;;;;1999.90;999.90;;;0.00;99.90;;;;;;5048617;28;20398;-48
2021/01/06 06:40:50;;;;;;;1999.90;999.90;;;0.00;99.90;;;;;;5028861;28;21000;-49
2021/01/06 06:43:38;;;;;;;1999.90;999.90;;;0.00;99.90;;;;;;5028578;28;20489;-48
2021/01/06 06:46:22;;;;;;;1999.90;999.90;;;0.10;99.90;;;;;;5038674;28;20442;-48
2021/01/06 06:49:22;;;;;;;1999.90;999.90;;;0.10;99.90;;;;;;5033779;28;21012;-49
2021/01/06 06:52:05;;;;;;;1999.90;999.90;;;0.10;99.90;;;;;;5038577;28;20526;-49
2021/01/06 06:54:46;;;;;;;1999.90;999.90;;;0.10;99.90;;;;;;5056315;23;21083;-50
2021/01/06 06:57:32;;;;;;;1999.90;999.90;;;0.10;99.90;;;;;;5043165;28;20429;-53
2021/01/06 07:00:18;;;;;;;1999.90;999.90;;;0.10;99.90;;;;;;5042306;28;20778;-50
2021/01/06 07:02:51;;;;;;;1999.90;999.90;;;0.10;99.90;;;;;;5036220;28;20484;-50
2021/01/06 07:05:44;;;;;;;1999.90;999.90;;;0.10;99.90;;;;;;5014016;28;20820;-50
2021/01/06 07:08:24;;;;;;;1999.90;999.90;;;0.10;99.90;;;;;;5023236;28;20453;-50
2021/01/06 07:11:03;;;;;;;1999.90;999.90;;;0.10;99.90;;;;;;5025416;28;20993;-50
2021/01/06 07:13:32;;;;;;;1999.90;999.90;;;0.10;99.90;;;;;;5019384;28;20458;-50
2021/01/06 07:16:04;;;;;;;1999.90;999.90;;;0.10;99.90;;;;;;5020044;28;20521;-50
2021/01/06 07:18:49;;;;;;;1999.90;999.90;;;0.10;99.90;;;;;;5019915;28;20446;-50
2021/01/06 07:21:29;;;;;;;1999.90;999.90;;;0.10;99.90;;;;;;5015440;28;20566;-50
2021/01/06 07:24:16;;;;;;;1999.90;999.90;;;0.10;99.90;;;;;;5015289;28;20466;-51
2021/01/06 07:26:51;;;;;;;1999.90;999.90;;;0.10;99.90;;;;;;5013605;28;20559;-50
2021/01/06 07:29:20;;;;;;;1999.90;999.90;;;0.10;99.90;;;;;;5015800;28;20478;-50
2021/01/06 07:31:59;;;;;;;1999.90;999.90;;;0.10;99.90;;;;;;5014078;28;20463;-50
2021/01/06 07:34:51;;;;;;;1999.90;999.90;;;0.10;99.90;;;;;;5007274;28;20546;-50
2021/01/06 07:37:30;;;;;;;1999.90;999.90;;;0.10;99.90;;;;;;5011467;28;20409;-51
2021/01/06 07:40:00;;;;;;;1999.90;999.90;;;0.10;99.90;;;;;;5013610;28;20454;-50
2021/01/06 07:42:38;;;;;;;1999.90;999.90;;;0.10;99.90;;;;;;5013919;28;20447;-50
2021/01/06 07:45:20;;;;;;;1999.90;999.90;;;0.10;99.90;;;;;;5012598;28;20505;-50
2021/01/06 07:47:57;;;;;;;1999.90;999.90;;;0.10;99.90;;;;;;5011409;28;20428;-50
2021/01/06 07:50:25;;;;;;;1999.90;999.90;;;0.10;99.90;;;;;;5013957;28;20463;-49
2021/01/06 07:52:55;;;;;;;1999.90;999.90;;;0.10;99.90;;;;;;5013736;28;20423;-50
2021/01/06 07:55:24;;;;;;;1999.90;999.90;;;0.10;99.90;;;;;;5010939;28;21127;-50
2021/01/06 07:58:13;;;;;;;1999.90;999.90;;;0.10;99.90;;;;;;5014040;28;21201;-50
2021/01/06 08:00:58;;;;;;;1999.90;999.90;;;0.10;99.90;;;;;;5013601;28;20428;-50
2021/01/06 08:03:31;;;;;;;1999.90;999.90;;;0.10;99.90;;;;;;5013512;28;20842;-51
2021/01/06 08:05:59;;;;;;;1999.90;999.90;;;0.10;99.90;;;;;;5008163;28;20780;-51
2021/01/06 08:08:39;;;;;;;1999.90;999.90;;;0.10;99.90;;;;;;5011210;28;20447;-50
2021/01/06 08:11:10;;;;;;;1999.90;999.90;;;0.10;99.90;;;;;;5007604;28;20558;-50
2021/01/06 08:13:55;;;;;;;1999.90;999.90;;;0.20;99.90;;;;;;5012571;28;20443;-50
2021/01/06 08:16:33;;;;;;;1999.90;999.90;;;0.10;99.90;;;;;;5013005;28;20420;-50
2021/01/06 08:19:10;;;;;;;1999.90;999.90;;;0.10;99.90;;;;;;5010275;28;20412;-50
2021/01/06 08:22:26;;;;;;;1999.90;999.90;;;0.20;99.90;;;;;;5013538;28;21104;-50
2021/01/06 08:25:01;;;;;;;1999.90;999.90;;;0.10;99.90;;;;;;4960056;28;20455;-50
2021/01/06 08:27:38;;;;;;;1999.90;999.90;;;0.10;99.90;;;;;;5011532;28;20414;-50
2021/01/06 08:30:23;;;;;;;1999.90;999.90;;;0.10;99.90;;;;;;5012108;28;20920;-50
2021/01/06 08:33:07;;;;;;;1999.90;999.90;;;0.10;99.90;;;;;;5003969;28;20412;-50
2021/01/06 08:35:37;;;;;;;1999.90;999.90;;;0.10;99.90;;;;;;5010041;28;20931;-50
2021/01/06 08:38:03;;;;;;;1999.90;999.90;;;0.10;99.90;;;;;;5011618;28;20426;-49
2021/01/06 08:40:36;;;;;;;1999.90;999.90;;;0.10;99.90;;;;;;5010702;28;20426;-51
2021/01/06 08:43:13;;;;;;;1999.90;999.90;;;0.10;99.90;;;;;;5008218;28;20192;-50
2021/01/06 08:45:52;;;;;;;1999.90;999.90;;;0.20;99.90;;;;;;5009715;28;20408;-51
2021/01/06 08:48:35;;;;;;;1999.90;999.90;;;0.10;99.90;;;;;;5006276;28;20993;-50
2021/01/06 08:51:10;;;;;;;1999.90;999.90;;;0.10;99.90;;;;;;5010593;28;20829;-50
2021/01/06 08:53:39;;;;;;;1999.90;999.90;;;0.10;99.90;;;;;;5009282;28;20454;-51
2021/01/06 08:56:27;;;;;;;1999.90;999.90;;;0.20;99.90;;;;;;5007473;28;20420;-51
2021/01/06 08:58:57;;;;;;;1999.90;999.90;;;0.10;99.90;;;;;;5006869;28;20415;-51
2021/01/06 09:01:58;;;;;;;1999.90;999.90;;;0.20;99.90;;;;;;5005209;28;20439;-50
2021/01/06 09:04:43;;;;;;;1999.90;999.90;;;0.20;99.90;;;;;;4998853;28;20503;-51
2021/01/06 09:07:27;;;;;;;1999.90;999.90;;;0.20;99.90;;;;;;5007109;28;20423;-51
2021/01/06 09:10:02;;;;;;;1999.90;999.90;;;0.20;99.90;;;;;;5004678;28;20602;-51
2021/01/06 09:12:48;;;;;;;1999.90;999.90;;;0.20;99.90;;;;;;5004579;28;20452;-51
2021/01/06 09:15:52;;;;;;;1999.90;999.90;;;0.20;99.90;;;;;;5024429;28;20435;-51
2021/01/06 09:18:28;;;;;;;1999.90;999.90;;;0.20;99.90;;;;;;4996839;28;20510;-50
2021/01/06 09:21:10;;;;;;;1999.90;999.90;;;0.20;99.90;;;;;;5000173;28;20600;-50
2021/01/06 09:23:37;;;;;;;1999.90;999.90;;;0.20;99.90;;;;;;4998235;28;20964;-51
2021/01/06 09:26:04;;;;;;;1999.90;999.90;;;0.10;99.90;;;;;;5000714;28;20475;-51
2021/01/06 09:28:34;;;;;;;1999.90;999.90;;;0.20;99.90;;;;;;5001662;28;20444;-52
2021/01/06 09:30:59;;;;;;;1999.90;999.90;;;0.20;99.90;;;;;;5003531;28;20569;-50
2021/01/06 09:33:33;;;;;;;1999.90;999.90;;;0.10;99.90;;;;;;5003722;28;20542;-50
2021/01/06 09:36:01;;;;;;;1999.90;999.90;;;0.20;99.90;;;;;;5018394;28;20199;-51
2021/01/06 09:38:32;;;;;;;1999.90;999.90;;;0.20;99.90;;;;;;5004063;28;20436;-51
2021/01/06 09:41:01;;;;;;;1999.90;999.90;;;0.20;99.90;;;;;;5003239;28;20440;-51
2021/01/06 09:43:53;;;;;;;1999.90;999.90;;;0.20;99.90;;;;;;5002366;28;20490;-52
2021/01/06 09:46:29;;;;;;;1999.90;999.90;;;0.20;99.90;;;;;;5006504;28;20430;-51
2021/01/06 09:49:02;;;;;;;1999.90;999.90;;;0.20;99.90;;;;;;5004026;28;20482;-51
2021/01/06 09:51:29;;;;;;;1999.90;999.90;;;0.20;99.90;;;;;;5002982;28;20555;-51
2021/01/06 09:53:59;;;;;;;1999.90;999.90;;;0.20;99.90;;;;;;5000910;28;20889;-51
2021/01/06 09:56:27;;;;;;;1999.90;999.90;;;0.20;99.90;;;;;;5003398;28;20804;-52
2021/01/06 09:58:53;;;;;;;1999.90;999.90;;;0.20;99.90;;;;;;5001741;28;20446;-51
2021/01/06 10:01:44;;;;;;;1999.90;999.90;;;0.20;99.90;;;;;;5017552;28;20447;-52
2021/01/06 10:04:25;;;;;;;1999.90;999.90;;;0.20;99.90;;;;;;5002800;28;20486;-51
2021/01/06 10:07:09;;;;;;;1999.90;999.90;;;0.30;99.90;;;;;;5000678;28;20468;-51
2021/01/06 10:09:42;;;;;;;1999.90;999.90;;;0.30;99.90;;;;;;5002426;28;20454;-51
2021/01/06 10:12:41;;;;;;;1999.90;999.90;;;0.30;99.90;;;;;;5000842;28;20586;-51
2021/01/06 10:15:32;;;;;;;1999.90;999.90;;;0.30;99.90;;;;;;4997922;28;20591;-53
2021/01/06 10:18:15;;;;;;;1999.90;999.90;;;0.30;99.90;;;;;;5005074;28;20826;-52
2021/01/06 10:20:44;;;;;;;1999.90;999.90;;;0.30;99.90;;;;;;5002753;28;20920;-52
2021/01/06 16:48:18;;;;;;;1999.90;999.90;;;0.00;99.90;;;;;;5102292;27;20564;-52
2021/01/06 16:50:44;;;;;;;1999.90;999.90;;;-0.10;99.90;;;;;;5099530;28;20459;-51
2021/01/06 16:53:16;;;;;;;1999.90;999.90;;;-0.10;99.90;;;;;;5100443;28;20512;-51
2021/01/06 16:55:42;;;;;;;1999.90;999.90;;;-0.10;99.90;;;;;;5101264;28;20874;-52
2021/01/06 16:58:13;;;;;;;1999.90;999.90;;;-0.10;99.90;;;;;;5103052;28;20513;-51
2021/01/06 17:00:47;;;;;;;1999.90;999.90;;;-0.10;99.90;;;;;;5103168;28;20236;-51
2021/01/06 17:03:38;;;;;;;1999.90;999.90;;;0.00;99.90;;;;;;5099736;28;20447;-51
2021/01/06 17:06:18;;;;;;;1999.90;999.90;;;0.00;99.90;;;;;;5099988;28;20564;-50
2021/01/06 17:08:44;;;;;;;1999.90;999.90;;;-0.10;99.90;;;;;;5105807;28;20424;-50
2021/01/06 17:11:13;;;;;;;1999.90;999.90;;;0.00;99.90;;;;;;5102105;28;20419;-51
2021/01/06 17:13:49;;;;;;;1999.90;999.90;;;-0.10;99.90;;;;;;5093858;28;20933;-50
2021/01/06 17:16:15;;;;;;;1999.90;999.90;;;-0.10;99.90;;;;;;5099623;28;20479;-51
2021/01/06 17:18:44;;;;;;;1999.90;999.90;;;-0.10;99.90;;;;;;5102328;28;20809;-50
2021/01/06 17:21:24;;;;;;;1999.90;999.90;;;-0.10;99.90;;;;;;5103921;28;20205;-50
2021/01/06 17:24:02;;;;;;;1999.90;999.90;;;0.00;99.90;;;;;;5099651;28;20500;-50
2021/01/06 17:26:33;;;;;;;1999.90;999.90;;;0.00;99.90;;;;;;5099463;28;20490;-50
2021/01/06 17:29:06;;;;;;;1999.90;999.90;;;0.00;99.90;;;;;;5104386;28;20749;-51
2021/01/06 17:31:31;;;;;;;1999.90;999.90;;;0.00;99.90;;;;;;5102278;28;20496;-49
2021/01/06 17:33:59;;;;;;;1999.90;999.90;;;0.00;99.90;;;;;;5101697;28;21153;-50
2021/01/06 17:36:25;;;;;;;1999.90;999.90;;;0.00;99.90;;;;;;5101737;28;20625;-50
2021/01/06 17:38:51;;;;;;;1999.90;999.90;;;0.00;99.90;;;;;;5103994;28;20423;-51
2021/01/06 17:41:18;;;;;;;1999.90;999.90;;;0.00;99.90;;;;;;5095555;28;20304;-51
2021/01/06 17:43:45;;;;;;;1999.90;999.90;;;0.00;99.90;;;;;;5094872;28;20457;-50
2021/01/06 17:46:12;;;;;;;1999.90;999.90;;;0.10;99.90;;;;;;5097279;28;20502;-49
2021/01/06 17:48:41;;;;;;;1999.90;999.90;;;0.00;99.90;;;;;;5100741;28;20812;-50
2021/01/06 17:51:09;;;;;;;1999.90;999.90;;;0.00;99.90;;;;;;5102793;28;20423;-48
2021/01/06 17:53:38;;;;;;;1999.90;999.90;;;0.00;99.90;;;;;;5101321;28;20458;-48
2021/01/06 17:56:07;;;;;;;1999.90;999.90;;;0.00;99.90;;;;;;5101427;28;20473;-49
2021/01/06 17:58:34;;;;;;;1999.90;999.90;;;0.00;99.90;;;;;;5089340;28;20828;-49
2021/01/06 18:00:59;;;;;;;1999.90;999.90;;;0.00;99.90;;;;;;5084387;28;20435;-48
2021/01/06 18:03:25;;;;;;;1999.90;999.90;;;0.00;99.90;;;;;;5088613;28;20449;-49
2021/01/06 18:05:52;;;;;;;1999.90;999.90;;;0.00;99.90;;;;;;5087172;28;20221;-50
2021/01/06 18:08:28;;;;;;;1999.90;999.90;;;0.00;99.90;;;;;;5089361;28;20269;-50
2021/01/06 18:10:55;;;;;;;1999.90;999.90;;;0.10;99.90;;;;;;5086718;28;20682;-49
2021/01/06 18:13:22;;;;;;;1999.90;999.90;;;0.10;99.90;;;;;;5085319;28;20533;-50
2021/01/06 18:15:51;;;;;;;1999.90;999.90;;;0.00;99.90;;;;;;5086083;28;20427;-50
2021/01/06 18:18:19;;;;;;;1999.90;999.90;;;0.00;99.90;;;;;;5086821;28;20478;-51
2021/01/06 18:20:46;;;;;;;1999.90;999.90;;;0.00;99.90;;;;;;5081429;28;20428;-50
2021/01/06 18:23:23;;;;;;;1999.90;999.90;;;0.00;99.90;;;;;;5082939;28;20446;-49
2021/01/06 18:25:59;;;;;;;1999.90;999.90;;;0.10;99.90;;;;;;5084834;28;20514;-51
2021/01/06 18:28:27;;;;;;;1999.90;999.90;;;0.10;99.90;;;;;;5084373;28;20948;-52
2021/01/06 18:31:02;;;;;;;1999.90;999.90;;;0.10;99.90;;;;;;5081406;28;20447;-48
2021/01/06 18:33:39;;;;;;;1999.90;999.90;;;0.00;99.90;;;;;;5083431;28;20461;-50
2021/01/06 18:36:09;;;;;;;1999.90;999.90;;;0.10;99.90;;;;;;5084604;28;20427;-49
2021/01/06 18:38:51;;;;;;;1999.90;999.90;;;0.10;99.90;;;;;;5082886;28;20464;-49
2021/01/06 18:41:19;;;;;;;1999.90;999.90;;;0.00;99.90;;;;;;5083087;28;20436;-51
2021/01/06 18:43:46;;;;;;;1999.90;999.90;;;0.00;99.90;;;;;;5083409;28;20956;-51
2021/01/06 18:46:36;;;;;;;1999.90;999.90;;;0.00;99.90;;;;;;5082890;28;20485;-49
2021/01/06 18:49:07;;;;;;;1999.90;999.90;;;0.00;99.90;;;;;;5081789;28;20432;-48
2021/01/06 18:51:53;;;;;;;1999.90;999.90;;;0.00;99.90;;;;;;5083357;28;20488;-49
2021/01/06 18:54:23;;;;;;;1999.90;999.90;;;0.00;99.90;;;;;;5081007;28;21184;-50
2021/01/06 18:56:50;;;;;;;1999.90;999.90;;;0.00;99.90;;;;;;5083698;28;20558;-49
2021/01/06 18:59:34;;;;;;;1999.90;999.90;;;0.00;99.90;;;;;;5086381;28;20431;-50
2021/01/06 19:02:01;;;;;;;1999.90;999.90;;;0.00;99.90;;;;;;5082885;28;20947;-48
2021/01/06 19:04:27;;;;;;;1999.90;999.90;;;0.00;99.90;;;;;;5082471;28;21295;-47
2021/01/06 19:06:53;;;;;;;1999.90;999.90;;;0.00;99.90;;;;;;5082820;28;20473;-49
2021/01/06 19:09:28;;;;;;;1999.90;999.90;;;0.00;99.90;;;;;;5083207;28;20432;-49
2021/01/06 19:12:04;;;;;;;1999.90;999.90;;;0.00;99.90;;;;;;5080459;28;22279;-50
2021/01/06 19:14:30;;;;;;;1999.90;999.90;;;0.00;99.90;;;;;;5076710;28;21137;-50
2021/01/06 19:16:55;;;;;;;1999.90;999.90;;;0.10;99.90;;;;;;5083615;28;20453;-48
2021/01/06 19:19:21;;;;;;;1999.90;999.90;;;0.10;99.90;;;;;;5083339;28;20507;-49
2021/01/06 19:21:47;;;;;;;1999.90;999.90;;;0.10;99.90;;;;;;5081661;28;20745;-48
2021/01/06 19:24:13;;;;;;;1999.90;999.90;;;0.10;99.90;;;;;;5087330;28;20728;-49
2021/01/06 19:26:39;;;;;;;1999.90;999.90;;;0.10;99.90;;;;;;5085633;28;20208;-50
2021/01/06 19:29:12;;;;;;;1999.90;999.90;;;0.00;99.90;;;;;;5085967;28;20235;-49
2021/01/06 19:31:39;;;;;;;1999.90;999.90;;;0.00;99.90;;;;;;5085758;28;20433;-49
2021/01/06 19:34:05;;;;;;;1999.90;999.90;;;0.00;99.90;;;;;;5079861;28;20901;-50
2021/01/06 19:36:35;;;;;;;1999.90;999.90;;;0.10;99.90;;;;;;5081178;28;20444;-50
2021/01/06 19:39:02;;;;;;;1999.90;999.90;;;0.10;99.90;;;;;;5080749;28;20936;-49
2021/01/06 19:41:30;;;;;;;1999.90;999.90;;;0.10;99.90;;;;;;5080895;28;20426;-50
2021/01/06 19:43:57;;;;;;;1999.90;999.90;;;0.00;99.90;;;;;;5079399;28;20459;-50
2021/01/06 19:46:31;;;;;;;1999.90;999.90;;;0.10;99.90;;;;;;5079113;28;20495;-52
2021/01/06 19:49:14;;;;;;;1999.90;999.90;;;0.10;99.90;;;;;;5079806;28;20436;-49
2021/01/06 19:51:40;;;;;;;1999.90;999.90;;;0.10;99.90;;;;;;5080235;28;20463;-50
2021/01/06 19:54:21;;;;;;;1999.90;999.90;;;0.10;99.90;;;;;;5079404;28;20452;-50
2021/01/06 19:56:48;;;;;;;1999.90;999.90;;;0.00;99.90;;;;;;5079645;28;20536;-48
2021/01/06 19:59:14;;;;;;;1999.90;999.90;;;0.00;99.90;;;;;;5077226;28;20564;-51
2021/01/06 20:01:41;;;;;;;1999.90;999.90;;;0.00;99.90;;;;;;5079409;28;21111;-48
2021/01/06 20:04:07;;;;;;;1999.90;999.90;;;0.00;99.90;;;;;;5079340;28;20462;-51
2021/01/06 20:06:34;;;;;;;1999.90;999.90;;;-0.10;99.90;;;;;;5081387;28;21163;-51
2021/01/06 20:09:05;;;;;;;1999.90;999.90;;;0.00;99.90;;;;;;5081596;28;20436;-47
2021/01/06 20:11:31;;;;;;;1999.90;999.90;;;0.00;99.90;;;;;;5081192;28;20475;-48
2021/01/06 20:14:17;;;;;;;1999.90;999.90;;;0.00;99.90;;;;;;5077057;28;20534;-50
2021/01/06 20:16:45;;;;;;;1999.90;999.90;;;0.00;99.90;;;;;;5077764;28;20428;-52
2021/01/06 20:19:11;;;;;;;1999.90;999.90;;;0.00;99.90;;;;;;5080700;28;21297;-49
2021/01/06 20:21:38;;;;;;;1999.90;999.90;;;0.00;99.90;;;;;;5079386;28;20472;-49
2021/01/06 20:24:06;;;;;;;1999.90;999.90;;;0.00;99.90;;;;;;5080834;28;21061;-49
2021/01/06 20:26:31;;;;;;;1999.90;999.90;;;0.00;99.90;;;;;;5079039;28;21206;-50
2021/01/06 20:28:57;;;;;;;1999.90;999.90;;;0.10;99.90;;;;;;5081431;28;20511;-47
2021/01/06 20:31:24;;;;;;;1999.90;999.90;;;0.00;99.90;;;;;;5081519;28;20793;-48
2021/01/06 20:33:51;;;;;;;1999.90;999.90;;;0.00;99.90;;;;;;5081770;28;20240;-50
2021/01/06 20:36:28;;;;;;;1999.90;999.90;;;0.00;99.90;;;;;;5077549;28;20448;-48
2021/01/06 20:38:57;;;;;;;1999.90;999.90;;;0.00;99.90;;;;;;5079007;28;20431;-50
2021/01/06 20:41:34;;;;;;;1999.90;999.90;;;0.00;99.90;;;;;;5080211;28;20866;-48
2021/01/06 20:44:00;;;;;;;1999.90;999.90;;;0.00;99.90;;;;;;5079307;28;20455;-47
2021/01/06 20:46:28;;;;;;;1999.90;999.90;;;0.10;99.90;;;;;;5080418;28;21107;-51
2021/01/06 20:48:54;;;;;;;1999.90;999.90;;;0.10;99.90;;;;;;5079563;28;20442;-49
2021/01/06 20:51:20;;;;;;;1999.90;999.90;;;0.10;99.90;;;;;;5080299;28;20427;-48
2021/01/06 20:53:46;;;;;;;1999.90;999.90;;;0.00;99.90;;;;;;5083398;28;20217;-47
2021/01/06 20:56:12;;;;;;;1999.90;999.90;;;0.00;99.90;;;;;;5086644;28;20951;-48
2021/01/06 20:58:37;;;;;;;1999.90;999.90;;;0.10;99.90;;;;;;5088184;28;20189;-48
2021/01/06 21:01:03;;;;;;;1999.90;999.90;;;0.00;99.90;;;;;;5089304;28;20438;-49
2021/01/06 21:03:29;;;;;;;1999.90;999.90;;;0.00;99.90;;;;;;5089259;28;20241;-48
2021/01/06 21:05:54;;;;;;;1999.90;999.90;;;0.10;99.90;;;;;;5074791;28;20651;-47
2021/01/06 21:08:20;;;;;;;1999.90;999.90;;;0.00;99.90;;;;;;5089252;28;20210;-48
2021/01/06 21:10:46;;;;;;;1999.90;999.90;;;0.00;99.90;;;;;;5087112;28;20636;-48
2021/01/06 21:13:11;;;;;;;1999.90;999.90;;;0.10;99.90;;;;;;5086952;28;20211;-48
2021/01/06 21:15:37;;;;;;;1999.90;999.90;;;0.10;99.90;;;;;;5088518;28;20185;-46
2021/01/06 21:18:04;;;;;;;1999.90;999.90;;;0.10;99.90;;;;;;5089700;28;20794;-47
2021/01/06 21:20:30;;;;;;;1999.90;999.90;;;0.10;99.90;;;;;;5087724;28;20174;-49
2021/01/06 21:22:55;;;;;;;1999.90;999.90;;;0.10;99.90;;;;;;5088460;28;20436;-50
2021/01/06 21:25:21;;;;;;;1999.90;999.90;;;0.10;99.90;;;;;;5089499;28;20619;-47
2021/01/06 21:27:47;;;;;;;1999.90;999.90;;;0.10;99.90;;;;;;5088468;28;20210;-51
2021/01/06 21:30:13;;;;;;;1999.90;999.90;;;0.00;99.90;;;;;;5088732;28;20551;-49
2021/01/06 21:32:43;;;;;;;1999.90;999.90;;;0.10;99.90;;;;;;5088836;28;20200;-48
2021/01/06 21:35:11;;;;;;;1999.90;999.90;;;0.00;99.90;;;;;;5089035;28;20486;-48
2021/01/06 21:37:37;;;;;;;1999.90;999.90;;;0.10;99.90;;;;;;5093974;28;21257;-47
2021/01/06 21:40:06;;;;;;;1999.90;999.90;;;0.10;99.90;;;;;;5093510;28;20419;-47
2021/01/06 21:42:31;;;;;;;1999.90;999.90;;;0.00;99.90;;;;;;5092760;28;20435;-47
2021/01/06 21:44:57;;;;;;;1999.90;999.90;;;0.10;99.90;;;;;;5092375;28;20525;-48
2021/01/06 21:47:23;;;;;;;1999.90;999.90;;;0.00;99.90;;;;;;5092818;28;20283;-48
2021/01/06 21:49:48;;;;;;;1999.90;999.90;;;0.00;99.90;;;;;;5092360;28;20178;-48
2021/01/06 21:52:14;;;;;;;1999.90;999.90;;;0.00;99.90;;;;;;5094267;28;20570;-47
2021/01/06 21:54:40;;;;;;;1999.90;999.90;;;0.00;99.90;;;;;;5091338;28;20202;-47
2021/01/06 21:57:05;;;;;;;1999.90;999.90;;;0.00;99.90;;;;;;5090713;28;20274;-47
2021/01/06 21:59:31;;;;;;;1999.90;999.90;;;0.00;99.90;;;;;;5091594;28;20235;-50
2021/01/06 22:01:57;;;;;;;1999.90;999.90;;;0.00;99.90;;;;;;5091988;28;20257;-50
2021/01/06 22:04:22;;;;;;;1999.90;999.90;;;0.00;99.90;;;;;;5093139;28;20216;-47
2021/01/06 22:06:48;;;;;;;1999.90;999.90;;;0.00;99.90;;;;;;5089839;28;20353;-51
2021/01/06 22:09:14;;;;;;;1999.90;999.90;;;0.00;99.90;;;;;;5092107;28;20183;-48
2021/01/06 22:11:39;;;;;;;1999.90;999.90;;;0.00;99.90;;;;;;5092939;28;20170;-49
2021/01/06 22:14:05;;;;;;;1999.90;999.90;;;0.00;99.90;;;;;;5090078;28;20332;-48
2021/01/06 22:16:32;;;;;;;1999.90;999.90;;;0.00;99.90;;;;;;5092291;28;20269;-47
2021/01/06 22:18:58;;;;;;;1999.90;999.90;;;0.00;99.90;;;;;;5093116;28;20426;-47
2021/01/06 22:21:23;;;;;;;1999.90;999.90;;;0.00;99.90;;;;;;5090977;28;20432;-47
2021/01/06 22:23:49;;;;;;;1999.90;999.90;;;0.00;99.90;;;;;;5092043;28;20500;-48
2021/01/06 22:26:15;;;;;;;1999.90;999.90;;;-0.10;99.90;;;;;;5092353;28;20287;-47
2021/01/06 22:28:41;;;;;;;1999.90;999.90;;;-0.10;99.90;;;;;;5091496;28;20189;-47
2021/01/06 22:31:07;;;;;;;1999.90;999.90;;;0.00;99.90;;;;;;5093097;28;20411;-48
2021/01/06 22:33:34;;;;;;;1999.90;999.90;;;0.00;99.90;;;;;;5087096;28;20461;-47
2021/01/06 22:36:00;;;;;;;1999.90;999.90;;;0.00;99.90;;;;;;5088371;28;20176;-49
2021/01/06 22:38:26;;;;;;;1999.90;999.90;;;0.00;99.90;;;;;;5092481;28;20423;-49
2021/01/06 22:40:52;;;;;;;1999.90;999.90;;;0.10;99.90;;;;;;5091345;28;20175;-48
2021/01/06 22:43:19;;;;;;;1999.90;999.90;;;0.00;99.90;;;;;;5090823;28;20462;-48
2021/01/06 22:45:44;;;;;;;1999.90;999.90;;;0.10;99.90;;;;;;5075646;28;20445;-47
2021/01/06 22:48:10;;;;;;;1999.90;999.90;;;0.10;99.90;;;;;;5083917;28;20478;-47
2021/01/06 22:50:36;;;;;;;1999.90;999.90;;;0.10;99.90;;;;;;5092295;28;20178;-47
2021/01/06 22:53:02;;;;;;;1999.90;999.90;;;0.00;99.90;;;;;;5090294;28;20215;-49
2021/01/06 22:55:27;;;;;;;1999.90;999.90;;;-0.10;99.90;;;;;;5090723;28;20191;-50
2021/01/06 22:57:53;;;;;;;1999.90;999.90;;;0.00;99.90;;;;;;5092543;28;20779;-47
2021/01/06 23:00:30;;;;;;;1999.90;999.90;;;0.00;99.90;;;;;;5091721;28;20189;-48
2021/01/06 23:02:56;;;;;;;1999.90;999.90;;;0.10;99.90;;;;;;5093372;28;20221;-49
2021/01/06 23:05:23;;;;;;;1999.90;999.90;;;0.10;99.90;;;;;;5091565;28;20946;-48
2021/01/06 23:07:50;;;;;;;1999.90;999.90;;;0.10;99.90;;;;;;5090561;28;20551;-48
2021/01/06 23:10:16;;;;;;;1999.90;999.90;;;0.10;99.90;;;;;;5080426;28;20444;-47
2021/01/06 23:12:43;;;;;;;1999.90;999.90;;;0.10;99.90;;;;;;5089738;28;20436;-48
2021/01/06 23:15:10;;;;;;;1999.90;999.90;;;0.10;99.90;;;;;;5090193;28;20571;-48
2021/01/06 23:17:36;;;;;;;1999.90;999.90;;;0.10;99.90;;;;;;5089202;28;20444;-50
2021/01/06 23:20:10;;;;;;;1999.90;999.90;;;0.10;99.90;;;;;;5089091;28;20443;-49
2021/01/06 23:22:35;;;;;;;1999.90;999.90;;;0.10;99.90;;;;;;5089505;28;20454;-48
2021/01/06 23:25:01;;;;;;;1999.90;999.90;;;0.10;99.90;;;;;;5091329;28;20511;-48
2021/01/06 23:27:27;;;;;;;1999.90;999.90;;;0.10;99.90;;;;;;5090625;28;20228;-48
2021/01/06 23:29:53;;;;;;;1999.90;999.90;;;0.00;99.90;;;;;;5090066;28;20191;-51
2021/01/06 23:32:18;;;;;;;1999.90;999.90;;;0.00;99.90;;;;;;5091484;28;20224;-48
2021/01/06 23:34:44;;;;;;;1999.90;999.90;;;0.00;99.90;;;;;;5087027;28;20206;-48
2021/01/06 23:37:10;;;;;;;1999.90;999.90;;;0.00;99.90;;;;;;5091085;28;20183;-49
2021/01/06 23:39:35;;;;;;;1999.90;999.90;;;0.10;99.90;;;;;;5090366;28;20342;-48
2021/01/06 23:42:01;;;;;;;1999.90;999.90;;;0.10;99.90;;;;;;5091480;28;20187;-48
2021/01/06 23:44:26;;;;;;;1999.90;999.90;;;0.10;99.90;;;;;;5089664;28;20213;-47
2021/01/06 23:46:52;;;;;;;1999.90;999.90;;;0.10;99.90;;;;;;5088961;28;20219;-48
2021/01/06 23:49:17;;;;;;;1999.90;999.90;;;0.10;99.90;;;;;;5090735;28;20190;-49
2021/01/06 23:51:43;;;;;;;1999.90;999.90;;;0.00;99.90;;;;;;5094692;28;20219;-48
2021/01/06 23:54:09;;;;;;;1999.90;999.90;;;0.10;99.90;;;;;;5098863;28;20233;-48
2021/01/06 23:56:36;;;;;;;1999.90;999.90;;;0.10;99.90;;;;;;5081781;28;20195;-48
2021/01/06 23:59:02;;;;;;;1999.90;999.90;;;0.10;99.90;;;;;;5090323;28;20558;-48
